MMPG

Piedras Negras International Airport

Mexico
TAF MMPG 190505Z 1906/2006 32008KT 4SM -RA BKN010 OVC020 FM191000 33005KT 3SM BR -RA BKN005 OVC010 TEMPO 1911/1915 1/2SM FG DZ VV002 FM191600 33010KT 4SM -RA BKN010 OVC070 FM191800 33010KT 6SM HZ BKN015 BKN080 TEMPO 1922/2002 3SM RA OVC010CB
Issued Valid From Valid To
Oct-19 @ 05:05 UTC
(5 hours ago)
Oct-19 @ 06:00 UTC
(4 hours ago)
Oct-20 @ 06:00 UTC
(in 20 hours)
Oct-19 @ 06:00 to Oct-19 @ 10:00
TAF MMPG 190505Z 1906/2006 32008KT 4SM -RA BKN010 OVC020
Wind Visibility Clouds Conditions
320° at 8 knots 4 miles
  • Broken at 1,000' AGL
  • Overcast at 2,000' AGL
  • Light Rain
From Oct-19 @ 10:00 to Oct-19 @ 16:00
FM191000 33005KT 3SM BR -RA BKN005 OVC010
Wind Visibility Clouds Conditions
330° at 5 knots 3 miles
  • Broken at 500' AGL
  • Overcast at 1,000' AGL
  • Mist
  • Light Rain
Temporary Oct-19 @ 11:00 to Oct-19 @ 15:00
TEMPO 1911/1915 1/2SM FG DZ VV002
Visibility Clouds Conditions
1/2 miles
  • Vertical visibility at 200' AGL
  • Fog
  • Drizzle
From Oct-19 @ 16:00 to Oct-19 @ 18:00
FM191600 33010KT 4SM -RA BKN010 OVC070
Wind Visibility Clouds Conditions
330° at 10 knots 4 miles
  • Broken at 1,000' AGL
  • Overcast at 7,000' AGL
  • Light Rain
From Oct-19 @ 18:00 to Oct-20 @ 06:00
FM191800 33010KT 6SM HZ BKN015 BKN080
Wind Visibility Clouds Conditions
330° at 10 knots 6 miles
  • Broken at 1,500' AGL
  • Broken at 8,000' AGL
  • Haze
Temporary Oct-19 @ 22:00 to Oct-20 @ 02:00
TEMPO 1922/2002 3SM RA OVC010CB
Visibility Clouds Conditions
3 miles
  • Overcast at 1,000' AGL
  • Rain
TAF MMPG 190505Z 1906/2006 32008KT 4SM -RA BKN010 OVC020 FM191000 33005KT 3SM BR -RA BKN005 OVC010 TEMPO 1911/1915 1/2SM FG DZ VV002 FM191600 33010KT 4SM -RA BKN010 OVC070 FM191800 33010KT 6SM HZ BKN015 BKN080 TEMPO 1922/2002 3SM RA OVC010CB
Issued Oct-19 @ 05:05 UTC
(5 hours ago)
Valid From Oct-19 @ 06:00 UTC
(4 hours ago)
Valid To Oct-20 @ 06:00 UTC
(in 20 hours)
Oct-19 @ 06:00 - Oct-19 @ 10:00
Wind Visibility
320° at 8 knots 4 miles
Clouds
  • Broken at 1,000' AGL
  • Overcast at 2,000' AGL
Conditions
  • Light Rain
From Oct-19 @ 10:00 - Oct-19 @ 16:00
Wind Visibility
330° at 5 knots 3 miles
Clouds
  • Broken at 500' AGL
  • Overcast at 1,000' AGL
Conditions
  • Mist
  • Light Rain
Temporary Oct-19 @ 11:00 - Oct-19 @ 15:00
Clouds
  • Vertical visibility at 200' AGL
Conditions
  • Fog
  • Drizzle
From Oct-19 @ 16:00 - Oct-19 @ 18:00
Wind Visibility
330° at 10 knots 4 miles
Clouds
  • Broken at 1,000' AGL
  • Overcast at 7,000' AGL
Conditions
  • Light Rain
From Oct-19 @ 18:00 - Oct-20 @ 06:00
Wind Visibility
330° at 10 knots 6 miles
Clouds
  • Broken at 1,500' AGL
  • Broken at 8,000' AGL
Conditions
  • Haze
Temporary Oct-19 @ 22:00 - Oct-20 @ 02:00
Clouds
  • Overcast at 1,000' AGL
Conditions
  • Rain